sensor_id;sensor_type;location;lat;lon;timestamp;temperature;humidity
57390;DHT22;43217;52.694;6.214;2022-11-10T00:00:26;9.50;99.90
57390;DHT22;43217;52.694;6.214;2022-11-10T00:02:52;9.50;99.90
57390;DHT22;43217;52.694;6.214;2022-11-10T00:05:18;9.50;99.90
57390;DHT22;43217;52.694;6.214;2022-11-10T00:07:44;9.50;99.90
57390;DHT22;43217;52.694;6.214;2022-11-10T00:10:09;9.40;99.90
57390;DHT22;43217;52.694;6.214;2022-11-10T00:12:35;9.40;99.90
57390;DHT22;43217;52.694;6.214;2022-11-10T00:15:29;9.40;99.90
57390;DHT22;43217;52.694;6.214;2022-11-10T00:18:13;9.40;99.90
57390;DHT22;43217;52.694;6.214;2022-11-10T00:20:39;9.40;99.90
57390;DHT22;43217;52.694;6.214;2022-11-10T00:23:04;9.40;99.90
57390;DHT22;43217;52.694;6.214;2022-11-10T00:25:31;9.30;99.90
57390;DHT22;43217;52.694;6.214;2022-11-10T00:27:58;9.30;99.90
57390;DHT22;43217;52.694;6.214;2022-11-10T00:30:25;9.30;99.90
57390;DHT22;43217;52.694;6.214;2022-11-10T00:32:50;9.30;99.90
57390;DHT22;43217;52.694;6.214;2022-11-10T00:35:16;9.30;99.90
57390;DHT22;43217;52.694;6.214;2022-11-10T00:37:41;9.30;99.90
57390;DHT22;43217;52.694;6.214;2022-11-10T00:40:08;9.30;99.90
57390;DHT22;43217;52.694;6.214;2022-11-10T00:42:33;9.30;99.90
57390;DHT22;43217;52.694;6.214;2022-11-10T00:44:59;9.30;99.90
57390;DHT22;43217;52.694;6.214;2022-11-10T00:47:24;9.30;99.90
57390;DHT22;43217;52.694;6.214;2022-11-10T00:49:50;9.30;99.90
57390;DHT22;43217;52.694;6.214;2022-11-10T00:52:16;9.30;99.90
57390;DHT22;43217;52.694;6.214;2022-11-10T00:54:41;9.30;99.90
57390;DHT22;43217;52.694;6.214;2022-11-10T00:57:07;9.30;99.90
57390;DHT22;43217;52.694;6.214;2022-11-10T00:59:32;9.30;99.90
57390;DHT22;43217;52.694;6.214;2022-11-10T01:01:58;9.30;99.90
57390;DHT22;43217;52.694;6.214;2022-11-10T01:04:23;9.30;99.90
57390;DHT22;43217;52.694;6.214;2022-11-10T01:06:49;9.20;99.90
57390;DHT22;43217;52.694;6.214;2022-11-10T01:09:17;9.20;99.90
57390;DHT22;43217;52.694;6.214;2022-11-10T01:11:42;9.20;99.90
57390;DHT22;43217;52.694;6.214;2022-11-10T01:14:08;9.20;99.90
57390;DHT22;43217;52.694;6.214;2022-11-10T01:16:33;9.20;99.90
57390;DHT22;43217;52.694;6.214;2022-11-10T01:19:00;9.20;99.90
57390;DHT22;43217;52.694;6.214;2022-11-10T01:21:27;9.20;99.90
57390;DHT22;43217;52.694;6.214;2022-11-10T01:23:54;9.20;99.90
57390;DHT22;43217;52.694;6.214;2022-11-10T01:26:19;9.20;99.90
57390;DHT22;43217;52.694;6.214;2022-11-10T01:28:45;9.20;99.90
57390;DHT22;43217;52.694;6.214;2022-11-10T01:31:17;9.20;99.90
57390;DHT22;43217;52.694;6.214;2022-11-10T01:33:43;9.20;99.90
57390;DHT22;43217;52.694;6.214;2022-11-10T01:36:10;9.20;99.90
57390;DHT22;43217;52.694;6.214;2022-11-10T01:38:38;9.20;99.90
57390;DHT22;43217;52.694;6.214;2022-11-10T01:41:06;9.20;99.90
57390;DHT22;43217;52.694;6.214;2022-11-10T01:43:32;9.20;99.90
57390;DHT22;43217;52.694;6.214;2022-11-10T01:46:06;9.20;99.90
57390;DHT22;43217;52.694;6.214;2022-11-10T01:48:45;9.20;99.90
57390;DHT22;43217;52.694;6.214;2022-11-10T01:51:24;9.20;99.90
57390;DHT22;43217;52.694;6.214;2022-11-10T01:53:55;9.20;99.90
57390;DHT22;43217;52.694;6.214;2022-11-10T01:56:23;9.30;99.90
57390;DHT22;43217;52.694;6.214;2022-11-10T01:58:54;9.30;99.90
57390;DHT22;43217;52.694;6.214;2022-11-10T02:01:21;9.40;99.90
57390;DHT22;43217;52.694;6.214;2022-11-10T02:03:49;9.40;99.90
57390;DHT22;43217;52.694;6.214;2022-11-10T02:06:16;9.40;99.90
57390;DHT22;43217;52.694;6.214;2022-11-10T02:08:44;9.50;99.90
57390;DHT22;43217;52.694;6.214;2022-11-10T02:11:10;9.50;99.90
57390;DHT22;43217;52.694;6.214;2022-11-10T02:13:37;9.50;99.90
57390;DHT22;43217;52.694;6.214;2022-11-10T02:16:02;9.50;99.90
57390;DHT22;43217;52.694;6.214;2022-11-10T02:18:28;9.50;99.90
57390;DHT22;43217;52.694;6.214;2022-11-10T02:20:54;9.50;99.90
57390;DHT22;43217;52.694;6.214;2022-11-10T02:25:55;9.50;99.90
57390;DHT22;43217;52.694;6.214;2022-11-10T02:28:21;9.50;99.90
57390;DHT22;43217;52.694;6.214;2022-11-10T02:30:47;9.50;99.90
57390;DHT22;43217;52.694;6.214;2022-11-10T02:33:13;9.50;99.90
57390;DHT22;43217;52.694;6.214;2022-11-10T02:35:43;9.50;99.90
57390;DHT22;43217;52.694;6.214;2022-11-10T02:38:08;9.50;99.90
57390;DHT22;43217;52.694;6.214;2022-11-10T02:40:34;9.50;99.90
57390;DHT22;43217;52.694;6.214;2022-11-10T02:43:00;9.50;99.90
57390;DHT22;43217;52.694;6.214;2022-11-10T02:45:26;9.50;99.90
57390;DHT22;43217;52.694;6.214;2022-11-10T02:47:51;9.50;99.90
57390;DHT22;43217;52.694;6.214;2022-11-10T02:50:17;9.50;99.90
57390;DHT22;43217;52.694;6.214;2022-11-10T02:52:43;9.60;99.90
57390;DHT22;43217;52.694;6.214;2022-11-10T02:55:08;9.50;99.90
57390;DHT22;43217;52.694;6.214;2022-11-10T02:57:34;9.50;99.90
57390;DHT22;43217;52.694;6.214;2022-11-10T03:00:00;9.50;99.90
57390;DHT22;43217;52.694;6.214;2022-11-10T03:02:26;9.50;99.90
57390;DHT22;43217;52.694;6.214;2022-11-10T03:04:51;9.50;99.90
57390;DHT22;43217;52.694;6.214;2022-11-10T03:07:17;9.50;99.90
57390;DHT22;43217;52.694;6.214;2022-11-10T03:09:42;9.50;99.90
57390;DHT22;43217;52.694;6.214;2022-11-10T03:12:08;9.50;99.90
57390;DHT22;43217;52.694;6.214;2022-11-10T03:14:34;9.50;99.90
57390;DHT22;43217;52.694;6.214;2022-11-10T03:17:00;9.50;99.90
57390;DHT22;43217;52.694;6.214;2022-11-10T03:19:25;9.50;99.90
57390;DHT22;43217;52.694;6.214;2022-11-10T03:21:51;9.50;99.90
57390;DHT22;43217;52.694;6.214;2022-11-10T03:24:16;9.40;99.90
57390;DHT22;43217;52.694;6.214;2022-11-10T03:26:42;9.40;99.90
57390;DHT22;43217;52.694;6.214;2022-11-10T03:29:08;9.40;99.90
57390;DHT22;43217;52.694;6.214;2022-11-10T03:31:36;9.40;99.90
57390;DHT22;43217;52.694;6.214;2022-11-10T03:34:01;9.30;99.90
57390;DHT22;43217;52.694;6.214;2022-11-10T03:36:27;9.30;99.90
57390;DHT22;43217;52.694;6.214;2022-11-10T03:38:53;9.30;99.90
57390;DHT22;43217;52.694;6.214;2022-11-10T03:41:18;9.30;99.90
57390;DHT22;43217;52.694;6.214;2022-11-10T03:43:44;9.30;99.90
57390;DHT22;43217;52.694;6.214;2022-11-10T03:46:09;9.30;99.90
57390;DHT22;43217;52.694;6.214;2022-11-10T03:48:35;9.20;99.90
57390;DHT22;43217;52.694;6.214;2022-11-10T03:51:00;9.30;99.90
57390;DHT22;43217;52.694;6.214;2022-11-10T03:53:26;9.20;99.90
57390;DHT22;43217;52.694;6.214;2022-11-10T03:55:52;9.20;99.90
57390;DHT22;43217;52.694;6.214;2022-11-10T03:58:17;9.20;99.90
57390;DHT22;43217;52.694;6.214;2022-11-10T04:00:43;9.30;99.90
57390;DHT22;43217;52.694;6.214;2022-11-10T04:03:08;9.30;99.90
57390;DHT22;43217;52.694;6.214;2022-11-10T04:05:34;9.30;99.90
57390;DHT22;43217;52.694;6.214;2022-11-10T04:08:18;9.40;99.90
57390;DHT22;43217;52.694;6.214;2022-11-10T04:11:02;9.30;99.90
57390;DHT22;43217;52.694;6.214;2022-11-10T04:13:28;9.40;99.90
57390;DHT22;43217;52.694;6.214;2022-11-10T04:16:12;9.40;99.90
57390;DHT22;43217;52.694;6.214;2022-11-10T04:18:38;9.40;99.90
57390;DHT22;43217;52.694;6.214;2022-11-10T04:21:04;9.40;99.90
57390;DHT22;43217;52.694;6.214;2022-11-10T04:23:31;9.40;99.90
57390;DHT22;43217;52.694;6.214;2022-11-10T04:26:13;9.40;99.90
57390;DHT22;43217;52.694;6.214;2022-11-10T04:29:00;9.40;99.90
57390;DHT22;43217;52.694;6.214;2022-11-10T04:31:27;9.40;99.90
57390;DHT22;43217;52.694;6.214;2022-11-10T04:33:54;9.40;99.90
57390;DHT22;43217;52.694;6.214;2022-11-10T04:36:23;9.40;99.90
57390;DHT22;43217;52.694;6.214;2022-11-10T04:38:49;9.40;99.90
57390;DHT22;43217;52.694;6.214;2022-11-10T04:41:15;9.40;99.90
57390;DHT22;43217;52.694;6.214;2022-11-10T04:43:41;9.40;99.90
57390;DHT22;43217;52.694;6.214;2022-11-10T04:46:20;9.40;99.90
57390;DHT22;43217;52.694;6.214;2022-11-10T04:48:46;9.40;99.90
57390;DHT22;43217;52.694;6.214;2022-11-10T04:51:14;9.40;99.90
57390;DHT22;43217;52.694;6.214;2022-11-10T04:53:40;9.40;99.90
57390;DHT22;43217;52.694;6.214;2022-11-10T04:56:05;9.40;99.90
57390;DHT22;43217;52.694;6.214;2022-11-10T04:58:31;9.40;99.90
57390;DHT22;43217;52.694;6.214;2022-11-10T05:00:57;9.40;99.90
57390;DHT22;43217;52.694;6.214;2022-11-10T05:03:22;9.40;99.90
57390;DHT22;43217;52.694;6.214;2022-11-10T05:05:48;9.50;99.90
57390;DHT22;43217;52.694;6.214;2022-11-10T05:08:14;9.40;99.90
57390;DHT22;43217;52.694;6.214;2022-11-10T05:10:40;9.40;99.90
57390;DHT22;43217;52.694;6.214;2022-11-10T05:13:09;9.50;99.90
57390;DHT22;43217;52.694;6.214;2022-11-10T05:15:35;9.40;99.90
57390;DHT22;43217;52.694;6.214;2022-11-10T05:18:03;9.40;99.90
57390;DHT22;43217;52.694;6.214;2022-11-10T05:20:29;9.50;99.90
57390;DHT22;43217;52.694;6.214;2022-11-10T05:22:54;9.50;99.90
57390;DHT22;43217;52.694;6.214;2022-11-10T05:25:40;9.50;99.90
57390;DHT22;43217;52.694;6.214;2022-11-10T05:28:08;9.50;99.90
57390;DHT22;43217;52.694;6.214;2022-11-10T05:30:34;9.50;99.90
57390;DHT22;43217;52.694;6.214;2022-11-10T05:33:00;9.50;99.90
57390;DHT22;43217;52.694;6.214;2022-11-10T05:35:27;9.50;99.90
57390;DHT22;43217;52.694;6.214;2022-11-10T05:37:53;9.50;99.90
57390;DHT22;43217;52.694;6.214;2022-11-10T05:40:18;9.50;99.90
57390;DHT22;43217;52.694;6.214;2022-11-10T05:42:46;9.50;99.90
57390;DHT22;43217;52.694;6.214;2022-11-10T05:45:13;9.50;99.90
57390;DHT22;43217;52.694;6.214;2022-11-10T05:47:49;9.40;99.90
57390;DHT22;43217;52.694;6.214;2022-11-10T05:50:16;9.40;99.90
57390;DHT22;43217;52.694;6.214;2022-11-10T05:52:47;9.40;99.90
57390;DHT22;43217;52.694;6.214;2022-11-10T05:55:14;9.40;99.90
57390;DHT22;43217;52.694;6.214;2022-11-10T05:57:48;9.40;99.90
57390;DHT22;43217;52.694;6.214;2022-11-10T06:00:16;9.40;99.90
57390;DHT22;43217;52.694;6.214;2022-11-10T06:02:42;9.40;99.90
57390;DHT22;43217;52.694;6.214;2022-11-10T06:05:09;9.30;99.90
57390;DHT22;43217;52.694;6.214;2022-11-10T06:07:37;9.30;99.90
57390;DHT22;43217;52.694;6.214;2022-11-10T06:10:02;9.40;99.90
57390;DHT22;43217;52.694;6.214;2022-11-10T06:12:28;9.30;99.90
57390;DHT22;43217;52.694;6.214;2022-11-10T06:14:57;9.30;99.90
57390;DHT22;43217;52.694;6.214;2022-11-10T06:17:24;9.30;99.90
57390;DHT22;43217;52.694;6.214;2022-11-10T06:19:50;9.30;99.90
57390;DHT22;43217;52.694;6.214;2022-11-10T06:22:15;9.30;99.90
57390;DHT22;43217;52.694;6.214;2022-11-10T06:24:41;9.30;99.90
57390;DHT22;43217;52.694;6.214;2022-11-10T06:27:06;9.30;99.90
57390;DHT22;43217;52.694;6.214;2022-11-10T06:29:32;9.30;99.90
57390;DHT22;43217;52.694;6.214;2022-11-10T06:31:58;9.30;99.90
57390;DHT22;43217;52.694;6.214;2022-11-10T06:34:23;9.30;99.90
57390;DHT22;43217;52.694;6.214;2022-11-10T06:36:49;9.30;99.90
57390;DHT22;43217;52.694;6.214;2022-11-10T06:39:14;9.30;99.90
57390;DHT22;43217;52.694;6.214;2022-11-10T06:41:40;9.30;99.90
57390;DHT22;43217;52.694;6.214;2022-11-10T06:44:06;9.30;99.90
57390;DHT22;43217;52.694;6.214;2022-11-10T06:46:31;9.30;99.90
57390;DHT22;43217;52.694;6.214;2022-11-10T06:48:57;9.30;99.90
57390;DHT22;43217;52.694;6.214;2022-11-10T06:51:22;9.30;99.90
57390;DHT22;43217;52.694;6.214;2022-11-10T06:53:48;9.30;99.90
57390;DHT22;43217;52.694;6.214;2022-11-10T06:56:13;9.30;99.90
57390;DHT22;43217;52.694;6.214;2022-11-10T06:58:39;9.30;99.90
57390;DHT22;43217;52.694;6.214;2022-11-10T07:01:05;9.30;99.90
57390;DHT22;43217;52.694;6.214;2022-11-10T07:03:30;9.30;99.90
57390;DHT22;43217;52.694;6.214;2022-11-10T07:05:58;9.30;99.90
57390;DHT22;43217;52.694;6.214;2022-11-10T07:08:24;9.30;99.90
57390;DHT22;43217;52.694;6.214;2022-11-10T07:10:51;9.30;99.90
57390;DHT22;43217;52.694;6.214;2022-11-10T07:13:17;9.30;99.90
57390;DHT22;43217;52.694;6.214;2022-11-10T07:15:43;9.30;99.90
57390;DHT22;43217;52.694;6.214;2022-11-10T07:18:09;9.30;99.90
57390;DHT22;43217;52.694;6.214;2022-11-10T07:20:34;9.40;99.90
57390;DHT22;43217;52.694;6.214;2022-11-10T07:23:01;9.40;99.90
57390;DHT22;43217;52.694;6.214;2022-11-10T07:25:28;9.40;99.90
57390;DHT22;43217;52.694;6.214;2022-11-10T07:27:55;9.50;99.90
57390;DHT22;43217;52.694;6.214;2022-11-10T07:30:21;9.50;99.90
57390;DHT22;43217;52.694;6.214;2022-11-10T07:32:59;9.50;99.90
57390;DHT22;43217;52.694;6.214;2022-11-10T07:35:25;9.50;99.90
57390;DHT22;43217;52.694;6.214;2022-11-10T07:37:53;9.60;99.90
57390;DHT22;43217;52.694;6.214;2022-11-10T07:40:20;9.60;99.90
57390;DHT22;43217;52.694;6.214;2022-11-10T07:42:45;9.60;99.90
57390;DHT22;43217;52.694;6.214;2022-11-10T07:45:11;9.60;99.90
57390;DHT22;43217;52.694;6.214;2022-11-10T07:47:37;9.60;99.90
57390;DHT22;43217;52.694;6.214;2022-11-10T07:50:02;9.60;99.90
57390;DHT22;43217;52.694;6.214;2022-11-10T07:52:28;9.60;99.90
57390;DHT22;43217;52.694;6.214;2022-11-10T07:54:54;9.70;99.90
57390;DHT22;43217;52.694;6.214;2022-11-10T07:57:19;9.70;99.90
57390;DHT22;43217;52.694;6.214;2022-11-10T07:59:45;9.70;99.90
57390;DHT22;43217;52.694;6.214;2022-11-10T08:02:11;9.80;99.90
57390;DHT22;43217;52.694;6.214;2022-11-10T08:04:36;9.80;99.90
57390;DHT22;43217;52.694;6.214;2022-11-10T08:07:02;9.90;99.90
57390;DHT22;43217;52.694;6.214;2022-11-10T08:09:28;9.90;99.90
57390;DHT22;43217;52.694;6.214;2022-11-10T08:11:54;10.00;99.90
57390;DHT22;43217;52.694;6.214;2022-11-10T08:14:19;10.00;99.90
57390;DHT22;43217;52.694;6.214;2022-11-10T08:16:45;10.00;99.90
57390;DHT22;43217;52.694;6.214;2022-11-10T08:19:11;10.10;99.90
57390;DHT22;43217;52.694;6.214;2022-11-10T08:21:37;10.20;99.90
57390;DHT22;43217;52.694;6.214;2022-11-10T08:24:02;10.30;99.90
57390;DHT22;43217;52.694;6.214;2022-11-10T08:26:28;10.40;99.90
57390;DHT22;43217;52.694;6.214;2022-11-10T08:28:54;10.50;99.90
57390;DHT22;43217;52.694;6.214;2022-11-10T08:31:19;10.60;99.90
57390;DHT22;43217;52.694;6.214;2022-11-10T08:33:45;10.70;99.90
57390;DHT22;43217;52.694;6.214;2022-11-10T08:36:14;10.80;99.90
57390;DHT22;43217;52.694;6.214;2022-11-10T08:38:39;10.90;99.90
57390;DHT22;43217;52.694;6.214;2022-11-10T08:41:06;11.00;99.90
57390;DHT22;43217;52.694;6.214;2022-11-10T08:43:31;11.10;99.90
57390;DHT22;43217;52.694;6.214;2022-11-10T08:46:00;11.20;99.90
57390;DHT22;43217;52.694;6.214;2022-11-10T08:48:26;11.20;99.90
57390;DHT22;43217;52.694;6.214;2022-11-10T08:50:52;11.20;99.90
57390;DHT22;43217;52.694;6.214;2022-11-10T08:53:20;11.20;99.90
57390;DHT22;43217;52.694;6.214;2022-11-10T08:55:46;11.20;99.90
57390;DHT22;43217;52.694;6.214;2022-11-10T08:58:14;11.20;99.90
57390;DHT22;43217;52.694;6.214;2022-11-10T09:00:40;11.20;99.90
57390;DHT22;43217;52.694;6.214;2022-11-10T09:03:09;11.20;99.90
57390;DHT22;43217;52.694;6.214;2022-11-10T09:05:36;11.20;99.90
57390;DHT22;43217;52.694;6.214;2022-11-10T09:08:03;11.20;99.90
57390;DHT22;43217;52.694;6.214;2022-11-10T09:10:29;11.20;99.90
57390;DHT22;43217;52.694;6.214;2022-11-10T09:12:58;11.20;99.90
57390;DHT22;43217;52.694;6.214;2022-11-10T09:15:24;11.20;99.90
57390;DHT22;43217;52.694;6.214;2022-11-10T09:17:50;11.30;99.90
57390;DHT22;43217;52.694;6.214;2022-11-10T09:20:16;11.30;99.90
57390;DHT22;43217;52.694;6.214;2022-11-10T09:22:41;11.40;99.90
57390;DHT22;43217;52.694;6.214;2022-11-10T09:25:07;11.50;99.90
57390;DHT22;43217;52.694;6.214;2022-11-10T09:27:37;11.50;99.90
57390;DHT22;43217;52.694;6.214;2022-11-10T09:30:04;11.60;99.90
57390;DHT22;43217;52.694;6.214;2022-11-10T09:32:30;11.60;99.90
57390;DHT22;43217;52.694;6.214;2022-11-10T09:34:57;11.70;99.90
57390;DHT22;43217;52.694;6.214;2022-11-10T09:37:23;11.80;99.90
57390;DHT22;43217;52.694;6.214;2022-11-10T09:39:48;11.80;99.90
57390;DHT22;43217;52.694;6.214;2022-11-10T09:44:57;12.00;99.90
57390;DHT22;43217;52.694;6.214;2022-11-10T09:50:05;12.20;99.90
57390;DHT22;43217;52.694;6.214;2022-11-10T09:52:33;12.30;99.90
57390;DHT22;43217;52.694;6.214;2022-11-10T09:55:21;12.20;99.90
57390;DHT22;43217;52.694;6.214;2022-11-10T09:57:52;12.20;99.90
57390;DHT22;43217;52.694;6.214;2022-11-10T10:00:20;12.20;99.90
57390;DHT22;43217;52.694;6.214;2022-11-10T10:02:53;12.30;99.90
57390;DHT22;43217;52.694;6.214;2022-11-10T10:08:10;12.40;99.90
57390;DHT22;43217;52.694;6.214;2022-11-10T10:10:46;12.50;99.90
57390;DHT22;43217;52.694;6.214;2022-11-10T10:18:58;12.70;99.90
57390;DHT22;43217;52.694;6.214;2022-11-10T10:23:53;12.70;99.90
57390;DHT22;43217;52.694;6.214;2022-11-10T10:26:29;12.80;99.90
57390;DHT22;43217;52.694;6.214;2022-11-10T10:28:57;12.80;99.90
57390;DHT22;43217;52.694;6.214;2022-11-10T10:31:33;12.90;99.90
57390;DHT22;43217;52.694;6.214;2022-11-10T10:34:00;13.00;99.90
57390;DHT22;43217;52.694;6.214;2022-11-10T10:36:28;13.00;99.90
57390;DHT22;43217;52.694;6.214;2022-11-10T10:38:54;13.10;99.90
57390;DHT22;43217;52.694;6.214;2022-11-10T10:41:27;13.10;99.90
57390;DHT22;43217;52.694;6.214;2022-11-10T10:43:59;13.20;99.90
57390;DHT22;43217;52.694;6.214;2022-11-10T10:46:25;13.20;99.90
57390;DHT22;43217;52.694;6.214;2022-11-10T10:49:20;13.30;99.90
57390;DHT22;43217;52.694;6.214;2022-11-10T10:51:46;13.30;99.90
57390;DHT22;43217;52.694;6.214;2022-11-10T10:54:23;13.30;99.90
57390;DHT22;43217;52.694;6.214;2022-11-10T10:56:49;13.40;99.90
57390;DHT22;43217;52.694;6.214;2022-11-10T10:59:20;13.40;99.90
57390;DHT22;43217;52.694;6.214;2022-11-10T11:01:51;13.40;99.90
57390;DHT22;43217;52.694;6.214;2022-11-10T11:06:56;13.50;99.90
57390;DHT22;43217;52.694;6.214;2022-11-10T11:09:43;13.60;99.90
57390;DHT22;43217;52.694;6.214;2022-11-10T11:12:26;13.60;99.90
57390;DHT22;43217;52.694;6.214;2022-11-10T11:15:11;13.60;99.90
57390;DHT22;43217;52.694;6.214;2022-11-10T11:17:38;13.70;99.90
57390;DHT22;43217;52.694;6.214;2022-11-10T11:20:15;13.60;99.90
57390;DHT22;43217;52.694;6.214;2022-11-10T11:23:37;13.70;99.90
57390;DHT22;43217;52.694;6.214;2022-11-10T11:25:44;13.80;99.90
57390;DHT22;43217;52.694;6.214;2022-11-10T11:36:37;13.70;99.90
57390;DHT22;43217;52.694;6.214;2022-11-10T11:42:24;13.80;99.90
57390;DHT22;43217;52.694;6.214;2022-11-10T11:50:44;13.80;99.90
57390;DHT22;43217;52.694;6.214;2022-11-10T11:56:25;13.70;99.90
57390;DHT22;43217;52.694;6.214;2022-11-10T11:59:15;13.70;99.90
57390;DHT22;43217;52.694;6.214;2022-11-10T12:01:44;13.70;99.90
57390;DHT22;43217;52.694;6.214;2022-11-10T12:09:37;13.80;99.90
57390;DHT22;43217;52.694;6.214;2022-11-10T12:15:13;13.80;99.90
57390;DHT22;43217;52.694;6.214;2022-11-10T12:17:47;13.80;99.90
57390;DHT22;43217;52.694;6.214;2022-11-10T12:23:14;13.90;99.90
57390;DHT22;43217;52.694;6.214;2022-11-10T12:25:51;14.00;99.90
57390;DHT22;43217;52.694;6.214;2022-11-10T12:28:43;14.00;99.90
57390;DHT22;43217;52.694;6.214;2022-11-10T12:31:16;14.00;99.90
57390;DHT22;43217;52.694;6.214;2022-11-10T12:33:53;14.10;99.90
57390;DHT22;43217;52.694;6.214;2022-11-10T12:36:20;14.10;99.90
57390;DHT22;43217;52.694;6.214;2022-11-10T12:41:21;14.30;99.90
57390;DHT22;43217;52.694;6.214;2022-11-10T12:46:16;14.40;99.90
57390;DHT22;43217;52.694;6.214;2022-11-10T12:51:39;14.40;99.90
57390;DHT22;43217;52.694;6.214;2022-11-10T12:54:09;14.40;99.90
57390;DHT22;43217;52.694;6.214;2022-11-10T12:56:46;14.40;99.90
57390;DHT22;43217;52.694;6.214;2022-11-10T12:59:23;14.30;99.90
57390;DHT22;43217;52.694;6.214;2022-11-10T13:01:55;14.30;99.90
57390;DHT22;43217;52.694;6.214;2022-11-10T13:04:21;14.30;99.90
57390;DHT22;43217;52.694;6.214;2022-11-10T13:06:59;14.20;99.90
57390;DHT22;43217;52.694;6.214;2022-11-10T13:09:30;14.30;99.90
57390;DHT22;43217;52.694;6.214;2022-11-10T13:12:13;14.20;99.90
57390;DHT22;43217;52.694;6.214;2022-11-10T13:14:40;14.20;99.90
57390;DHT22;43217;52.694;6.214;2022-11-10T13:17:06;14.10;99.90
57390;DHT22;43217;52.694;6.214;2022-11-10T13:24:31;14.10;99.90
57390;DHT22;43217;52.694;6.214;2022-11-10T13:34:42;14.10;99.90
57390;DHT22;43217;52.694;6.214;2022-11-10T13:42:44;14.00;99.90
57390;DHT22;43217;52.694;6.214;2022-11-10T13:45:41;14.00;99.90
57390;DHT22;43217;52.694;6.214;2022-11-10T13:50:57;14.10;99.90
57390;DHT22;43217;52.694;6.214;2022-11-10T13:54:32;14.10;99.90
57390;DHT22;43217;52.694;6.214;2022-11-10T13:59:24;14.10;99.90
57390;DHT22;43217;52.694;6.214;2022-11-10T14:01:50;14.10;99.90
57390;DHT22;43217;52.694;6.214;2022-11-10T14:07:00;14.00;99.90
57390;DHT22;43217;52.694;6.214;2022-11-10T14:09:31;14.00;99.90
57390;DHT22;43217;52.694;6.214;2022-11-10T14:12:03;14.00;99.90
57390;DHT22;43217;52.694;6.214;2022-11-10T14:17:45;14.00;99.90
57390;DHT22;43217;52.694;6.214;2022-11-10T14:20:39;14.00;99.90
57390;DHT22;43217;52.694;6.214;2022-11-10T14:23:32;14.00;99.90
57390;DHT22;43217;52.694;6.214;2022-11-10T14:26:02;13.90;99.90
57390;DHT22;43217;52.694;6.214;2022-11-10T14:28:32;13.90;99.90
57390;DHT22;43217;52.694;6.214;2022-11-10T14:30:58;13.90;99.90
57390;DHT22;43217;52.694;6.214;2022-11-10T14:33:25;13.80;99.90
57390;DHT22;43217;52.694;6.214;2022-11-10T14:35:56;13.90;99.90
57390;DHT22;43217;52.694;6.214;2022-11-10T14:38:26;13.80;99.90
57390;DHT22;43217;52.694;6.214;2022-11-10T14:41:03;13.80;99.90
57390;DHT22;43217;52.694;6.214;2022-11-10T14:43:30;13.80;99.90
57390;DHT22;43217;52.694;6.214;2022-11-10T14:45:56;13.80;99.90
57390;DHT22;43217;52.694;6.214;2022-11-10T14:48:25;13.80;99.90
57390;DHT22;43217;52.694;6.214;2022-11-10T14:50:52;13.80;99.90
57390;DHT22;43217;52.694;6.214;2022-11-10T14:53:24;13.70;99.90
57390;DHT22;43217;52.694;6.214;2022-11-10T14:55:54;13.70;99.90
57390;DHT22;43217;52.694;6.214;2022-11-10T14:58:26;13.60;99.90
57390;DHT22;43217;52.694;6.214;2022-11-10T15:00:56;13.70;99.90
57390;DHT22;43217;52.694;6.214;2022-11-10T15:03:41;13.70;99.90
57390;DHT22;43217;52.694;6.214;2022-11-10T15:06:09;13.60;99.90
57390;DHT22;43217;52.694;6.214;2022-11-10T15:08:36;13.60;99.90
57390;DHT22;43217;52.694;6.214;2022-11-10T15:11:02;13.60;99.90
57390;DHT22;43217;52.694;6.214;2022-11-10T15:18:50;13.50;99.90
57390;DHT22;43217;52.694;6.214;2022-11-10T15:21:17;13.50;99.90
57390;DHT22;43217;52.694;6.214;2022-11-10T15:23:44;13.50;99.90
57390;DHT22;43217;52.694;6.214;2022-11-10T15:26:20;13.50;99.90
57390;DHT22;43217;52.694;6.214;2022-11-10T15:28:46;13.50;99.90
57390;DHT22;43217;52.694;6.214;2022-11-10T15:31:24;13.50;99.90
57390;DHT22;43217;52.694;6.214;2022-11-10T15:33:53;13.50;99.90
57390;DHT22;43217;52.694;6.214;2022-11-10T15:39:21;13.40;99.90
57390;DHT22;43217;52.694;6.214;2022-11-10T15:41:50;13.40;99.90
57390;DHT22;43217;52.694;6.214;2022-11-10T15:44:23;13.40;99.90
57390;DHT22;43217;52.694;6.214;2022-11-10T15:46:53;13.40;99.90
57390;DHT22;43217;52.694;6.214;2022-11-10T15:49:30;13.40;99.90
57390;DHT22;43217;52.694;6.214;2022-11-10T15:51:59;13.40;99.90
57390;DHT22;43217;52.694;6.214;2022-11-10T15:54:28;13.40;99.90
57390;DHT22;43217;52.694;6.214;2022-11-10T15:56:54;13.40;99.90
57390;DHT22;43217;52.694;6.214;2022-11-10T15:59:20;13.40;99.90
57390;DHT22;43217;52.694;6.214;2022-11-10T16:01:45;13.40;99.90
57390;DHT22;43217;52.694;6.214;2022-11-10T16:04:12;13.40;99.90
57390;DHT22;43217;52.694;6.214;2022-11-10T16:06:38;13.30;99.90
57390;DHT22;43217;52.694;6.214;2022-11-10T16:09:05;13.40;99.90
57390;DHT22;43217;52.694;6.214;2022-11-10T16:11:31;13.30;99.90
57390;DHT22;43217;52.694;6.214;2022-11-10T16:14:00;13.30;99.90
57390;DHT22;43217;52.694;6.214;2022-11-10T16:16:26;13.30;99.90
57390;DHT22;43217;52.694;6.214;2022-11-10T16:18:52;13.30;99.90
57390;DHT22;43217;52.694;6.214;2022-11-10T16:21:20;13.30;99.90
57390;DHT22;43217;52.694;6.214;2022-11-10T16:23:46;13.30;99.90
57390;DHT22;43217;52.694;6.214;2022-11-10T16:26:16;13.30;99.90
57390;DHT22;43217;52.694;6.214;2022-11-10T16:28:43;13.30;99.90
57390;DHT22;43217;52.694;6.214;2022-11-10T16:31:13;13.30;99.90
57390;DHT22;43217;52.694;6.214;2022-11-10T16:33:39;13.30;99.90
57390;DHT22;43217;52.694;6.214;2022-11-10T16:36:25;13.30;99.90
57390;DHT22;43217;52.694;6.214;2022-11-10T16:38:53;13.30;99.90
57390;DHT22;43217;52.694;6.214;2022-11-10T16:41:19;13.30;99.90
57390;DHT22;43217;52.694;6.214;2022-11-10T16:43:45;13.30;99.90
57390;DHT22;43217;52.694;6.214;2022-11-10T16:46:22;13.30;99.90
57390;DHT22;43217;52.694;6.214;2022-11-10T16:48:51;13.30;99.90
57390;DHT22;43217;52.694;6.214;2022-11-10T16:51:17;13.30;99.90
57390;DHT22;43217;52.694;6.214;2022-11-10T16:53:50;13.30;99.90
57390;DHT22;43217;52.694;6.214;2022-11-10T16:56:16;13.30;99.90
57390;DHT22;43217;52.694;6.214;2022-11-10T16:58:45;13.30;99.90
57390;DHT22;43217;52.694;6.214;2022-11-10T17:01:17;13.20;99.90
57390;DHT22;43217;52.694;6.214;2022-11-10T17:03:45;13.20;99.90
57390;DHT22;43217;52.694;6.214;2022-11-10T17:06:13;13.20;99.90
57390;DHT22;43217;52.694;6.214;2022-11-10T17:08:39;13.20;99.90
57390;DHT22;43217;52.694;6.214;2022-11-10T17:11:05;13.20;99.90
57390;DHT22;43217;52.694;6.214;2022-11-10T17:13:31;13.20;99.90
57390;DHT22;43217;52.694;6.214;2022-11-10T17:16:04;13.10;99.90
57390;DHT22;43217;52.694;6.214;2022-11-10T17:18:30;13.10;99.90
57390;DHT22;43217;52.694;6.214;2022-11-10T17:20:56;13.10;99.90
57390;DHT22;43217;52.694;6.214;2022-11-10T17:23:23;13.10;99.90
57390;DHT22;43217;52.694;6.214;2022-11-10T17:25:50;13.10;99.90
57390;DHT22;43217;52.694;6.214;2022-11-10T17:28:17;13.10;99.90